Time;durP1;ratioP1;P1;durP2;ratioP2;P2;SDS_P1;SDS_P2;PMS_P1;PMS_P2;Temp;Humidity;BMP_temperature;BMP_pressure;BME280_temperature;BME280_humidity;BME280_pressure;Samples;Min_cycle;Max_cycle;Signal;HPM_P1;HPM_P2
2021/01/13 00:00:18;;;;;;;0.45;0.08;;;10.90;88.10;;;;;;6219149;22;20004;-91
2021/01/13 00:02:45;;;;;;;0.00;0.00;;;10.90;88.10;;;;;;6219464;22;20360;-90
2021/01/13 00:05:13;;;;;;;0.00;0.00;;;10.90;88.10;;;;;;6219381;23;19996;-89
2021/01/13 00:07:43;;;;;;;0.10;0.10;;;10.90;88.10;;;;;;6220571;23;20266;-90
2021/01/13 00:10:10;;;;;;;0.10;0.00;;;10.90;88.10;;;;;;6219874;23;20011;-89
2021/01/13 00:12:39;;;;;;;0.00;0.00;;;10.90;88.20;;;;;;6220548;23;20000;-92
2021/01/13 00:15:07;;;;;;;0.10;0.00;;;10.80;88.10;;;;;;6247700;22;20007;-91
2021/01/13 00:17:33;;;;;;;0.00;0.00;;;10.80;88.20;;;;;;6173557;23;20267;-92
2021/01/13 00:20:00;;;;;;;0.00;0.00;;;10.80;88.20;;;;;;6196449;23;20004;-93
2021/01/13 00:22:26;;;;;;;0.00;0.00;;;10.80;88.20;;;;;;6170134;23;20011;-90
2021/01/13 00:24:53;;;;;;;0.20;0.05;;;10.80;88.20;;;;;;6195258;23;19996;-90
2021/01/13 00:27:21;;;;;;;0.00;0.00;;;10.80;88.20;;;;;;6170076;23;20000;-91
2021/01/13 00:29:51;;;;;;;0.00;0.00;;;10.80;88.20;;;;;;6171805;23;20000;-93
2021/01/13 00:32:18;;;;;;;0.28;0.20;;;10.80;88.20;;;;;;6169456;23;20019;-92
2021/01/13 00:34:44;;;;;;;0.63;0.25;;;10.80;88.30;;;;;;6170787;23;20284;-91
2021/01/13 00:37:11;;;;;;;0.00;0.00;;;10.80;88.20;;;;;;6220405;23;20000;-91
2021/01/13 00:39:37;;;;;;;0.43;0.10;;;10.80;88.30;;;;;;6170415;23;20328;-92
2021/01/13 00:42:04;;;;;;;0.00;0.00;;;10.80;88.30;;;;;;6170254;23;20003;-91
2021/01/13 00:44:31;;;;;;;0.00;0.00;;;10.80;88.30;;;;;;6169930;23;20012;-91
2021/01/13 00:46:57;;;;;;;0.00;0.00;;;10.80;88.30;;;;;;6194725;23;20008;-93
2021/01/13 00:49:24;;;;;;;0.00;0.00;;;10.80;88.40;;;;;;6195563;23;20391;-91
2021/01/13 00:51:50;;;;;;;0.00;0.00;;;10.80;88.40;;;;;;6170605;23;20247;-92
2021/01/13 00:54:16;;;;;;;0.00;0.00;;;10.80;88.30;;;;;;6195453;23;20023;-91
2021/01/13 00:56:44;;;;;;;0.00;0.00;;;10.80;88.30;;;;;;6196995;23;20005;-91
2021/01/13 00:59:11;;;;;;;0.00;0.00;;;10.80;88.30;;;;;;6196655;23;20000;-90
2021/01/13 01:01:41;;;;;;;0.00;0.00;;;10.80;88.30;;;;;;6170992;23;20032;-89
2021/01/13 01:04:08;;;;;;;0.25;0.25;;;10.80;88.30;;;;;;6172222;23;20397;-89
2021/01/13 01:06:34;;;;;;;0.05;0.00;;;10.80;88.30;;;;;;6195363;23;20388;-90
2021/01/13 01:09:00;;;;;;;0.10;0.00;;;10.80;88.30;;;;;;6172054;23;20004;-90
2021/01/13 01:11:31;;;;;;;0.43;0.15;;;10.80;88.30;;;;;;6171601;23;20280;-90
2021/01/13 01:13:57;;;;;;;0.00;0.00;;;10.80;88.30;;;;;;6197446;23;20003;-90
2021/01/13 01:16:34;;;;;;;0.57;0.00;;;10.80;88.40;;;;;;6169495;23;20020;-90
2021/01/13 01:19:01;;;;;;;0.00;0.00;;;10.80;88.40;;;;;;6196038;23;20012;-90
2021/01/13 01:21:27;;;;;;;0.00;0.00;;;10.70;88.30;;;;;;6171186;23;20287;-90
2021/01/13 01:23:54;;;;;;;0.00;0.00;;;10.70;88.30;;;;;;6196056;23;20004;-91
2021/01/13 01:26:20;;;;;;;0.00;0.00;;;10.70;88.30;;;;;;6223835;23;19992;-89
2021/01/13 01:28:47;;;;;;;0.17;0.17;;;10.70;88.30;;;;;;6195512;23;20000;-89
2021/01/13 01:31:13;;;;;;;0.00;0.00;;;10.70;88.30;;;;;;6195275;23;20283;-92
2021/01/13 01:33:40;;;;;;;0.00;0.00;;;10.70;88.30;;;;;;6196537;23;20004;-90
2021/01/13 01:36:06;;;;;;;0.13;0.00;;;10.70;88.30;;;;;;6171163;23;20007;-89
2021/01/13 01:38:33;;;;;;;0.10;0.00;;;10.70;88.30;;;;;;6172058;23;20264;-89
2021/01/13 01:41:07;;;;;;;0.00;0.00;;;10.70;88.30;;;;;;6223267;23;20008;-90
2021/01/13 01:43:33;;;;;;;0.00;0.00;;;10.70;88.30;;;;;;6195704;23;19996;-90
2021/01/13 01:46:00;;;;;;;0.05;0.00;;;10.70;88.30;;;;;;6220229;22;20008;-90
2021/01/13 01:48:28;;;;;;;0.00;0.00;;;10.70;88.40;;;;;;6171886;23;19996;-90
2021/01/13 01:50:58;;;;;;;0.10;0.10;;;10.70;88.40;;;;;;6198977;23;20000;-92
2021/01/13 01:53:46;;;;;;;0.00;0.00;;;10.70;88.50;;;;;;6197138;23;20015;-93
2021/01/13 01:56:28;;;;;;;0.05;0.00;;;10.60;88.50;;;;;;6199526;23;20003;-93
2021/01/13 01:59:02;;;;;;;0.00;0.00;;;10.60;88.50;;;;;;6196346;23;20008;-91
2021/01/13 02:01:36;;;;;;;6.78;0.20;;;10.60;88.60;;;;;;6171106;23;20008;-90
2021/01/13 02:04:12;;;;;;;0.03;0.00;;;10.60;88.70;;;;;;6221947;23;19996;-90
2021/01/13 02:06:57;;;;;;;0.00;0.00;;;10.50;88.70;;;;;;6221731;23;20000;-90
2021/01/13 02:09:30;;;;;;;0.00;0.00;;;10.50;88.70;;;;;;6220646;23;20004;-88
2021/01/13 02:12:00;;;;;;;0.00;0.00;;;10.50;88.70;;;;;;6197831;23;20095;-89
2021/01/13 02:14:27;;;;;;;0.00;0.00;;;10.50;88.80;;;;;;6172445;23;20000;-90
2021/01/13 02:16:55;;;;;;;0.00;0.00;;;10.50;88.80;;;;;;6208912;23;20027;-91
2021/01/13 02:19:49;;;;;;;0.22;0.08;;;10.50;88.80;;;;;;6171384;23;20008;-90
2021/01/13 02:22:20;;;;;;;0.00;0.00;;;10.50;88.80;;;;;;6200962;23;20004;-90
2021/01/13 02:25:04;;;;;;;0.00;0.00;;;10.50;88.80;;;;;;6171177;23;19996;-89
2021/01/13 02:27:48;;;;;;;0.00;0.00;;;10.50;88.80;;;;;;6253510;23;20376;-89
2021/01/13 02:30:16;;;;;;;0.20;0.00;;;10.50;88.70;;;;;;6219450;23;20528;-91
2021/01/13 02:32:47;;;;;;;0.13;0.00;;;10.50;88.80;;;;;;6196435;23;20253;-90
2021/01/13 02:35:19;;;;;;;0.00;0.00;;;10.50;88.80;;;;;;6203601;23;20018;-90
2021/01/13 02:37:52;;;;;;;0.00;0.00;;;10.40;88.70;;;;;;6227047;23;20004;-89
2021/01/13 02:40:21;;;;;;;0.28;0.00;;;10.40;88.70;;;;;;6226774;23;20007;-90
2021/01/13 02:43:08;;;;;;;0.10;0.00;;;10.50;89.50;;;;;;6202838;23;19996;-89
2021/01/13 02:45:45;;;;;;;0.00;0.00;;;10.50;88.70;;;;;;6198370;23;20031;-91
2021/01/13 02:48:12;;;;;;;0.10;0.00;;;10.40;88.70;;;;;;6174945;23;20000;-90
2021/01/13 02:51:04;;;;;;;0.10;0.00;;;10.40;88.70;;;;;;6222300;23;20004;-91
2021/01/13 02:53:30;;;;;;;0.00;0.00;;;10.40;88.70;;;;;;6176834;23;20015;-91
2021/01/13 02:55:56;;;;;;;0.00;0.00;;;10.40;88.80;;;;;;6248308;23;20004;-90
2021/01/13 02:58:26;;;;;;;0.00;0.00;;;10.40;88.80;;;;;;6220247;23;20008;-90
2021/01/13 03:01:28;;;;;;;;;;;;;;;;;;;;;
2021/01/13 03:04:14;;;;;;;0.35;0.15;;;10.30;88.90;;;;;;6201339;23;20015;-92
2021/01/13 03:06:42;;;;;;;0.10;0.00;;;10.30;88.90;;;;;;6225277;23;20376;-90
2021/01/13 03:09:10;;;;;;;0.00;0.00;;;10.30;88.90;;;;;;6196146;23;20007;-90
2021/01/13 03:11:37;;;;;;;0.00;0.00;;;10.30;89.00;;;;;;6168954;23;20019;-91
2021/01/13 03:14:17;;;;;;;1.38;0.57;;;10.30;89.00;;;;;;6194441;23;20000;-89
2021/01/13 03:16:56;;;;;;;0.00;0.00;;;10.30;89.00;;;;;;6193241;23;20024;-91
2021/01/13 03:19:29;;;;;;;0.00;0.00;;;10.30;89.00;;;;;;6198719;23;20015;-92
2021/01/13 03:22:05;;;;;;;0.00;0.00;;;10.30;89.00;;;;;;6194467;23;20033;-89
2021/01/13 03:25:04;;;;;;;0.00;0.00;;;10.30;89.10;;;;;;6196588;23;20004;-90
2021/01/13 03:27:36;;;;;;;0.03;0.03;;;10.30;89.00;;;;;;6201655;23;20070;-92
2021/01/13 03:30:03;;;;;;;;;;;10.30;89.10;;;;;;6194414;23;20004;-91
2021/01/13 03:32:56;;;;;;;0.00;0.00;;;10.30;89.00;;;;;;6220180;23;19914;-92
2021/01/13 03:35:54;;;;;;;0.00;0.00;;;10.30;88.90;;;;;;6197630;23;20267;-93
2021/01/13 03:38:21;;;;;;;0.00;0.00;;;10.30;88.90;;;;;;6218654;23;20008;-90
2021/01/13 03:40:48;;;;;;;0.00;0.00;;;10.20;88.80;;;;;;6221276;23;20000;-90
2021/01/13 03:43:19;;;;;;;0.00;0.00;;;10.30;88.90;;;;;;6195810;23;20003;-90
2021/01/13 03:45:55;;;;;;;0.00;0.00;;;10.30;88.90;;;;;;6196124;23;20008;-90
2021/01/13 03:48:42;;;;;;;0.20;0.10;;;10.30;88.90;;;;;;6170979;23;20116;-93
2021/01/13 03:51:23;;;;;;;0.00;0.00;;;10.30;88.80;;;;;;6197268;23;20000;-91
2021/01/13 03:53:49;;;;;;;0.10;0.00;;;10.30;88.80;;;;;;6195165;23;20000;-90
2021/01/13 03:56:15;;;;;;;0.00;0.00;;;10.30;89.60;;;;;;6195024;23;20011;-90
2021/01/13 03:58:49;;;;;;;0.08;0.00;;;10.30;88.80;;;;;;6169795;23;20007;-92
2021/01/13 04:01:21;;;;;;;0.17;0.13;;;10.30;88.80;;;;;;6194124;23;20016;-92
2021/01/13 04:03:56;;;;;;;0.63;0.10;;;10.30;88.80;;;;;;6219421;23;20371;-91
2021/01/13 04:06:23;;;;;;;0.00;0.00;;;10.30;88.80;;;;;;6195596;23;20144;-91
2021/01/13 04:08:49;;;;;;;0.00;0.00;;;10.30;88.70;;;;;;6170118;23;20008;-90
2021/01/13 04:11:18;;;;;;;0.00;0.00;;;10.30;88.80;;;;;;6170395;23;20018;-91
2021/01/13 04:13:54;;;;;;;0.20;0.00;;;10.30;88.70;;;;;;6195107;23;19996;-90
2021/01/13 04:16:21;;;;;;;0.30;0.05;;;10.30;88.60;;;;;;6194518;23;20020;-91
2021/01/13 04:18:49;;;;;;;0.00;0.00;;;10.30;88.60;;;;;;6195706;23;20019;-92
2021/01/13 04:21:17;;;;;;;0.00;0.00;;;10.30;88.60;;;;;;6170232;23;20004;-92
2021/01/13 04:23:44;;;;;;;0.00;0.00;;;10.40;88.70;;;;;;6197593;23;20004;-91
2021/01/13 04:26:11;;;;;;;0.00;0.00;;;10.40;88.70;;;;;;6170074;23;19996;-92
2021/01/13 04:28:38;;;;;;;1.70;0.13;;;10.30;88.70;;;;;;6194304;23;19996;-89
2021/01/13 04:31:05;;;;;;;0.00;0.00;;;10.30;88.70;;;;;;6193717;23;20012;-90
2021/01/13 04:33:31;;;;;;;0.00;0.00;;;10.30;88.70;;;;;;6194670;23;20003;-89
2021/01/13 04:35:58;;;;;;;0.00;0.00;;;10.40;88.80;;;;;;6195016;23;20003;-91
2021/01/13 04:38:31;;;;;;;0.00;0.00;;;10.30;88.80;;;;;;6170011;23;20001;-90
2021/01/13 04:41:11;;;;;;;0.00;0.00;;;10.30;88.80;;;;;;6195186;23;20067;-90
2021/01/13 04:43:57;;;;;;;0.00;0.00;;;10.30;88.80;;;;;;6170126;23;20004;-90
2021/01/13 04:46:37;;;;;;;0.00;0.00;;;10.30;88.80;;;;;;6169232;23;20005;-90
2021/01/13 04:49:10;;;;;;;0.00;0.00;;;10.30;88.80;;;;;;6195628;23;19997;-91
2021/01/13 04:51:40;;;;;;;0.00;0.00;;;10.30;88.80;;;;;;6194536;23;20004;-90
2021/01/13 04:54:11;;;;;;;0.10;0.10;;;10.30;88.80;;;;;;6221566;23;20267;-91
2021/01/13 04:57:17;;;;;;;0.10;0.10;;;10.30;88.90;;;;;;6197261;23;19996;-92
2021/01/13 05:00:06;;;;;;;0.00;0.00;;;10.30;88.90;;;;;;6248194;23;20007;-92
2021/01/13 05:02:54;;;;;;;0.00;0.00;;;10.30;89.00;;;;;;6170461;23;20285;-91
2021/01/13 05:05:21;;;;;;;0.00;0.00;;;10.30;89.00;;;;;;6219435;23;20434;-91
2021/01/13 05:08:16;;;;;;;0.00;0.00;;;10.20;88.90;;;;;;6195739;23;19996;-93
2021/01/13 05:10:42;;;;;;;0.10;0.00;;;10.30;88.90;;;;;;6198473;23;20011;-89
2021/01/13 05:13:15;;;;;;;0.00;0.00;;;10.30;88.90;;;;;;6194203;23;20000;-90
2021/01/13 05:16:02;;;;;;;0.00;0.00;;;10.30;88.90;;;;;;6169132;22;20168;-89
2021/01/13 05:18:51;;;;;;;0.40;0.00;;;10.30;88.80;;;;;;6198469;23;20019;-90
2021/01/13 05:21:19;;;;;;;0.00;0.00;;;10.30;88.80;;;;;;6219012;23;20011;-90
2021/01/13 05:23:51;;;;;;;0.30;0.00;;;10.30;88.80;;;;;;6197206;23;19993;-91
2021/01/13 05:26:19;;;;;;;0.47;0.10;;;10.30;88.80;;;;;;6190948;23;20000;-90
2021/01/13 05:29:04;;;;;;;0.00;0.00;;;10.30;88.70;;;;;;6195172;23;19997;-89
2021/01/13 05:31:34;;;;;;;0.00;0.00;;;10.30;88.70;;;;;;6236990;23;20012;-90
2021/01/13 05:34:01;;;;;;;0.00;0.00;;;10.30;88.70;;;;;;6216105;23;20004;-91
2021/01/13 05:36:32;;;;;;;0.00;0.00;;;10.30;88.70;;;;;;6199184;23;20004;-89
2021/01/13 05:39:06;;;;;;;0.00;0.00;;;10.30;88.70;;;;;;6196206;23;20291;-90
2021/01/13 05:41:40;;;;;;;0.00;0.00;;;10.30;88.70;;;;;;6194103;23;20012;-90
2021/01/13 05:44:08;;;;;;;0.00;0.00;;;10.30;88.70;;;;;;6170697;23;20364;-92
2021/01/13 05:46:46;;;;;;;0.00;0.00;;;10.30;88.70;;;;;;6197515;23;20011;-90
2021/01/13 05:49:12;;;;;;;0.00;0.00;;;10.30;89.40;;;;;;6171482;23;20008;-90
2021/01/13 05:51:40;;;;;;;0.00;0.00;;;10.30;88.70;;;;;;6196904;23;19996;-89
2021/01/13 05:54:11;;;;;;;0.00;0.00;;;10.40;88.80;;;;;;6196274;23;20004;-91
2021/01/13 05:56:38;;;;;;;0.00;0.00;;;10.30;88.70;;;;;;6223058;23;20230;-92
2021/01/13 05:59:06;;;;;;;0.00;0.00;;;10.40;88.80;;;;;;6196478;23;20019;-89
2021/01/13 06:01:38;;;;;;;0.00;0.00;;;10.30;88.70;;;;;;6194613;23;20017;-89
2021/01/13 06:04:05;;;;;;;0.00;0.00;;;10.30;88.70;;;;;;6249026;23;20004;-90
2021/01/13 06:06:36;;;;;;;0.00;0.00;;;10.30;88.70;;;;;;6195668;23;20004;-89
2021/01/13 06:09:03;;;;;;;0.00;0.00;;;10.40;88.80;;;;;;6195643;23;20244;-89
2021/01/13 06:11:33;;;;;;;0.00;0.00;;;10.30;89.50;;;;;;6170252;23;20008;-90
2021/01/13 06:14:09;;;;;;;0.10;0.00;;;10.30;88.70;;;;;;6194533;23;20159;-89
2021/01/13 06:16:36;;;;;;;0.00;0.00;;;10.30;88.70;;;;;;6201554;23;20023;-89
2021/01/13 06:19:02;;;;;;;0.10;0.00;;;10.30;88.70;;;;;;6195997;23;20135;-88
2021/01/13 06:21:32;;;;;;;0.00;0.00;;;10.30;88.70;;;;;;6170699;23;20140;-90
2021/01/13 06:23:58;;;;;;;0.00;0.00;;;10.30;89.50;;;;;;6196208;23;20000;-89
2021/01/13 06:26:25;;;;;;;0.00;0.00;;;10.30;88.70;;;;;;6170352;23;20004;-89
2021/01/13 06:29:28;;;;;;;0.00;0.00;;;10.30;88.70;;;;;;6195069;23;20007;-89
2021/01/13 06:31:57;;;;;;;0.00;0.00;;;10.30;88.70;;;;;;6194503;23;20027;-90
2021/01/13 06:34:28;;;;;;;0.17;0.17;;;10.30;88.70;;;;;;6170773;23;20387;-88
2021/01/13 06:37:33;;;;;;;0.00;0.00;;;10.40;88.70;;;;;;6229212;22;20003;-90
2021/01/13 06:40:08;;;;;;;0.00;0.00;;;10.30;88.60;;;;;;6200597;22;20052;-90
2021/01/13 06:45:11;;;;;;;0.00;0.00;;;10.30;88.60;;;;;;6197804;22;20080;-89
2021/01/13 06:47:53;;;;;;;0.00;0.00;;;10.30;88.60;;;;;;6172327;23;20005;-90
2021/01/13 06:50:39;;;;;;;0.00;0.00;;;10.30;88.70;;;;;;6167812;23;20363;-90
2021/01/13 06:53:09;;;;;;;0.00;0.00;;;10.30;88.80;;;;;;6188304;23;19997;-89
2021/01/13 06:55:37;;;;;;;0.20;0.10;;;10.30;88.80;;;;;;6163520;23;19997;-90
2021/01/13 06:58:21;;;;;;;0.00;0.00;;;10.30;88.80;;;;;;6139555;23;20247;-90
2021/01/13 07:00:48;;;;;;;0.10;0.00;;;10.30;88.80;;;;;;6163257;23;20016;-89
2021/01/13 07:03:29;;;;;;;0.00;0.00;;;10.30;88.90;;;;;;6163575;23;20000;-90
2021/01/13 07:05:57;;;;;;;0.00;0.00;;;10.30;88.90;;;;;;6142931;23;20000;-89
2021/01/13 07:08:24;;;;;;;0.00;0.00;;;10.20;88.80;;;;;;6164768;23;20391;-91
2021/01/13 07:11:06;;;;;;;0.00;0.00;;;10.30;88.90;;;;;;6164879;23;20375;-91
2021/01/13 07:13:38;;;;;;;0.00;0.00;;;10.30;88.80;;;;;;6139476;23;19997;-90
2021/01/13 07:16:05;;;;;;;0.00;0.00;;;10.30;88.80;;;;;;6166698;23;20013;-91
2021/01/13 07:18:32;;;;;;;0.00;0.00;;;10.30;88.80;;;;;;6164120;23;20371;-89
2021/01/13 07:21:08;;;;;;;0.00;0.00;;;10.30;88.80;;;;;;6163580;23;20008;-90
2021/01/13 07:23:36;;;;;;;0.00;0.00;;;10.30;88.70;;;;;;6167323;23;20000;-90
2021/01/13 07:26:02;;;;;;;0.10;0.00;;;10.30;88.70;;;;;;6166377;23;19997;-88
2021/01/13 07:28:29;;;;;;;0.00;0.00;;;10.30;88.60;;;;;;6164211;23;20118;-91
2021/01/13 07:30:55;;;;;;;0.00;0.00;;;10.30;88.60;;;;;;6165010;23;20013;-91
2021/01/13 07:33:21;;;;;;;0.00;0.00;;;10.30;88.60;;;;;;6140348;23;20001;-90
2021/01/13 07:35:49;;;;;;;0.00;0.00;;;10.30;88.60;;;;;;6166991;23;20256;-91
2021/01/13 07:38:33;;;;;;;0.00;0.00;;;10.40;88.60;;;;;;6146784;23;20001;-92
2021/01/13 07:41:16;;;;;;;0.00;0.00;;;10.50;88.40;;;;;;6146525;23;20016;-92
2021/01/13 07:44:19;;;;;;;0.00;0.00;;;10.70;88.00;;;;;;6151315;23;20011;-93
2021/01/13 07:47:05;;;;;;;0.00;0.00;;;10.90;87.40;;;;;;6195997;23;20019;-94
2021/01/13 07:50:23;;;;;;;0.00;0.00;;;11.10;87.00;;;;;;6151829;23;20008;-93
2021/01/13 07:52:53;;;;;;;0.00;0.00;;;11.20;86.70;;;;;;6204318;23;20004;-93
2021/01/13 07:55:39;;;;;;;0.00;0.00;;;11.40;86.50;;;;;;6147241;23;20007;-91
2021/01/13 07:58:20;;;;;;;0.05;0.05;;;11.50;86.30;;;;;;6152220;23;20004;-93
2021/01/13 08:01:37;;;;;;;;;;;;;;;;;;;;;
2021/01/13 08:20:22;;;;;;;;;;;;;;;;;;;;;
2021/01/13 08:23:08;;;;;;;0.00;0.00;;;11.80;86.10;;;;;;6137447;23;20016;-91
2021/01/13 08:29:54;;;;;;;0.20;0.00;;;11.60;86.70;;;;;;6100596;23;20015;-91
2021/01/13 08:32:37;;;;;;;0.00;0.00;;;11.40;87.10;;;;;;6145966;23;20024;-92
2021/01/13 08:35:59;;;;;;;0.00;0.00;;;11.30;87.30;;;;;;6196570;23;20000;-91
2021/01/13 08:38:28;;;;;;;0.00;0.00;;;11.20;87.60;;;;;;6226815;23;20395;-89
2021/01/13 08:40:57;;;;;;;0.20;0.20;;;11.10;88.00;;;;;;6194375;23;20445;-91
2021/01/13 08:43:25;;;;;;;0.00;0.00;;;11.00;88.10;;;;;;6193929;23;20254;-88
2021/01/13 08:46:19;;;;;;;0.00;0.00;;;11.00;88.20;;;;;;6151413;23;20272;-89
2021/01/13 08:48:46;;;;;;;0.20;0.00;;;11.10;88.20;;;;;;6173632;23;20011;-90
2021/01/13 08:51:38;;;;;;;0.28;0.10;;;11.00;88.00;;;;;;6194829;23;20004;-90
2021/01/13 08:54:26;;;;;;;0.10;0.03;;;11.10;88.00;;;;;;6174551;23;20015;-88
2021/01/13 08:56:58;;;;;;;1.90;0.17;;;11.00;88.00;;;;;;6195892;23;20007;-89
2021/01/13 08:59:50;;;;;;;0.10;0.00;;;11.00;88.00;;;;;;6195011;23;20371;-93
2021/01/13 09:02:20;;;;;;;0.10;0.10;;;11.10;88.00;;;;;;6189540;23;20020;-92
2021/01/13 09:05:13;;;;;;;0.22;0.10;;;11.10;87.80;;;;;;6194424;23;20135;-89
2021/01/13 09:07:55;;;;;;;0.00;0.00;;;11.20;87.70;;;;;;6212818;22;20108;-92
2021/01/13 09:10:22;;;;;;;0.05;0.05;;;11.20;87.60;;;;;;6215987;23;20014;-90
2021/01/13 09:12:52;;;;;;;0.00;0.00;;;11.30;87.50;;;;;;6213288;23;20002;-90
2021/01/13 09:15:34;;;;;;;0.00;0.00;;;11.40;87.20;;;;;;6206322;23;19996;-88
2021/01/13 09:18:00;;;;;;;0.00;0.00;;;11.30;87.10;;;;;;6213564;23;20009;-88
2021/01/13 09:20:31;;;;;;;0.30;0.25;;;11.20;87.40;;;;;;6169925;23;20001;-87
2021/01/13 09:22:58;;;;;;;0.00;0.00;;;11.10;87.60;;;;;;6197448;23;19996;-88
2021/01/13 09:25:26;;;;;;;0.00;0.00;;;11.00;87.90;;;;;;6195415;23;19992;-87
2021/01/13 09:28:00;;;;;;;0.00;0.00;;;11.00;88.10;;;;;;6220791;23;20000;-87
2021/01/13 09:30:29;;;;;;;0.05;0.05;;;11.00;88.10;;;;;;6169477;23;20012;-90
2021/01/13 09:33:07;;;;;;;0.00;0.00;;;10.90;88.10;;;;;;6169486;23;20000;-88
2021/01/13 09:35:41;;;;;;;0.00;0.00;;;11.00;88.10;;;;;;6197922;23;19992;-89
2021/01/13 09:38:11;;;;;;;0.00;0.00;;;11.10;88.00;;;;;;6170061;23;20008;-93
2021/01/13 09:40:50;;;;;;;0.00;0.00;;;11.00;87.90;;;;;;6170592;23;20008;-92
2021/01/13 09:43:26;;;;;;;0.00;0.00;;;11.10;87.70;;;;;;6195590;23;20004;-90
2021/01/13 09:45:54;;;;;;;0.00;0.00;;;11.10;87.60;;;;;;6195180;23;20008;-89
2021/01/13 09:48:39;;;;;;;;;;;;;;;;;;;;;
2021/01/13 09:51:11;;;;;;;0.00;0.00;;;11.20;88.40;;;;;;6198692;23;20375;-90
2021/01/13 09:54:05;;;;;;;0.00;0.00;;;11.10;87.50;;;;;;6171177;23;20027;-91
2021/01/13 09:56:34;;;;;;;0.00;0.00;;;11.20;87.50;;;;;;6197361;23;20390;-90
2021/01/13 09:59:11;;;;;;;0.00;0.00;;;11.10;87.40;;;;;;6169419;23;20000;-89
2021/01/13 10:01:42;;;;;;;0.00;0.00;;;11.10;87.50;;;;;;6153840;23;20016;-90
2021/01/13 10:04:17;;;;;;;0.97;0.17;;;11.10;87.50;;;;;;6171870;23;20007;-89
2021/01/13 10:07:11;;;;;;;0.00;0.00;;;11.20;87.60;;;;;;6197545;23;20011;-91
2021/01/13 10:09:37;;;;;;;0.00;0.00;;;11.20;87.40;;;;;;6205452;23;20008;-92
2021/01/13 10:12:03;;;;;;;0.05;0.00;;;11.30;87.10;;;;;;6169645;23;20008;-91
2021/01/13 10:14:30;;;;;;;7.68;0.15;;;11.40;86.80;;;;;;6169279;23;20004;-89
2021/01/13 10:16:57;;;;;;;0.00;0.00;;;11.50;86.50;;;;;;6170394;23;20356;-89
2021/01/13 10:19:27;;;;;;;0.00;0.00;;;11.60;86.50;;;;;;6169201;23;20301;-88
2021/01/13 10:21:53;;;;;;;0.00;0.00;;;11.60;86.20;;;;;;6247122;23;20011;-89
2021/01/13 10:24:20;;;;;;;0.00;0.00;;;11.70;86.20;;;;;;6196582;23;19996;-90
2021/01/13 10:26:47;;;;;;;0.00;0.00;;;11.70;86.30;;;;;;6195820;23;20359;-89
2021/01/13 10:29:15;;;;;;;0.00;0.00;;;11.70;86.30;;;;;;6169626;23;20004;-90
2021/01/13 10:31:42;;;;;;;0.00;0.00;;;11.60;86.30;;;;;;6169562;23;20421;-88
2021/01/13 10:34:11;;;;;;;0.00;0.00;;;11.60;86.50;;;;;;6195124;23;20430;-88
2021/01/13 10:36:51;;;;;;;0.00;0.00;;;11.60;86.50;;;;;;6169141;23;20000;-89
2021/01/13 10:39:18;;;;;;;0.00;0.00;;;11.60;86.50;;;;;;6220784;23;20000;-88
2021/01/13 10:41:55;;;;;;;0.00;0.00;;;11.70;86.30;;;;;;6220557;23;20004;-91
2021/01/13 10:44:25;;;;;;;0.00;0.00;;;11.70;86.20;;;;;;6170904;23;20000;-90
2021/01/13 10:46:55;;;;;;;0.00;0.00;;;11.70;86.10;;;;;;6196215;23;20004;-92
2021/01/13 10:49:35;;;;;;;0.00;0.00;;;11.80;86.10;;;;;;6219267;23;20003;-89
2021/01/13 10:52:08;;;;;;;0.85;0.15;;;11.80;85.90;;;;;;6171916;23;20000;-88
2021/01/13 10:54:37;;;;;;;0.00;0.00;;;11.90;85.80;;;;;;6195333;23;20004;-89
2021/01/13 10:57:08;;;;;;;0.40;0.30;;;11.90;85.60;;;;;;6195846;23;20059;-88
2021/01/13 10:59:35;;;;;;;0.00;0.00;;;12.00;85.60;;;;;;6175694;23;20000;-90
2021/01/13 11:02:06;;;;;;;0.00;0.00;;;12.10;86.20;;;;;;6185766;23;20291;-89
2021/01/13 11:04:35;;;;;;;;;;;12.20;85.30;;;;;;6195415;23;19997;-90
2021/01/13 11:07:12;;;;;;;0.08;0.08;;;12.30;84.90;;;;;;6219330;23;19923;-89
2021/01/13 11:09:47;;;;;;;0.00;0.00;;;12.30;84.60;;;;;;6169324;23;20272;-88
2021/01/13 11:12:21;;;;;;;0.00;0.00;;;12.40;84.50;;;;;;6198679;23;20371;-89
2021/01/13 11:14:52;;;;;;;0.00;0.00;;;12.50;84.30;;;;;;6204354;23;20018;-89
2021/01/13 11:17:19;;;;;;;0.00;0.00;;;12.60;84.20;;;;;;6195947;23;20043;-92
2021/01/13 11:19:48;;;;;;;0.00;0.00;;;12.50;84.10;;;;;;6196192;23;20004;-90
2021/01/13 11:22:15;;;;;;;0.00;0.00;;;12.50;84.20;;;;;;6195658;23;20287;-88
2021/01/13 11:24:46;;;;;;;0.00;0.00;;;12.30;84.50;;;;;;6194619;23;20004;-88
2021/01/13 11:27:18;;;;;;;0.00;0.00;;;12.20;85.00;;;;;;6221310;23;20011;-89
2021/01/13 11:30:20;;;;;;;0.00;0.00;;;12.10;85.30;;;;;;6195145;23;20004;-89
2021/01/13 11:32:57;;;;;;;0.00;0.00;;;12.00;85.70;;;;;;6214570;23;20012;-92
2021/01/13 11:35:46;;;;;;;0.00;0.00;;;11.80;86.20;;;;;;6196012;23;20000;-91
2021/01/13 11:38:52;;;;;;;0.00;0.00;;;11.70;86.50;;;;;;6193197;23;20004;-91
2021/01/13 11:42:15;;;;;;;0.00;0.00;;;11.70;86.50;;;;;;6222841;23;20016;-89
2021/01/13 11:45:52;;;;;;;0.63;0.10;;;11.80;86.40;;;;;;6159378;23;20141;-92
2021/01/13 11:48:35;;;;;;;0.00;0.00;;;11.80;86.10;;;;;;6097058;23;20010;-90
2021/01/13 11:51:24;;;;;;;;;;;;;;;;;;;;;
2021/01/13 11:54:39;;;;;;;0.00;0.00;;;11.90;85.90;;;;;;6184652;23;20024;-91
2021/01/13 12:25:43;;;;;;;3.95;0.13;;;11.80;85.80;;;;;;6237183;22;20037;-91
2021/01/13 12:28:56;;;;;;;0.00;0.00;;;11.80;85.80;;;;;;6148299;23;20017;-92
2021/01/13 12:34:56;;;;;;;1.70;0.17;;;11.70;85.90;;;;;;6128275;23;20037;-92
2021/01/13 12:37:25;;;;;;;0.00;0.00;;;11.60;86.00;;;;;;6078638;23;20245;-91
2021/01/13 12:40:12;;;;;;;0.00;0.00;;;11.60;86.10;;;;;;6202174;22;19996;-92
2021/01/13 12:46:10;;;;;;;0.00;0.00;;;11.70;85.90;;;;;;6152868;23;20025;-91
2021/01/13 12:48:36;;;;;;;0.00;0.00;;;11.70;85.50;;;;;;6153248;23;20376;-89
2021/01/13 12:51:04;;;;;;;0.00;0.00;;;11.80;85.40;;;;;;6161664;23;20004;-90
2021/01/13 12:53:30;;;;;;;0.00;0.00;;;11.90;85.20;;;;;;6159997;23;20007;-88
2021/01/13 12:55:57;;;;;;;0.00;0.00;;;11.90;85.80;;;;;;6164515;23;20312;-90
2021/01/13 12:58:25;;;;;;;0.08;0.00;;;11.80;85.20;;;;;;6138055;23;20004;-90
2021/01/13 13:00:52;;;;;;;0.05;0.00;;;11.80;85.40;;;;;;6161993;23;20008;-90
2021/01/13 13:03:19;;;;;;;0.10;0.00;;;11.80;85.60;;;;;;6161070;23;20009;-92
2021/01/13 13:05:47;;;;;;;0.00;0.00;;;11.70;85.70;;;;;;6163604;23;20026;-91
2021/01/13 13:08:14;;;;;;;0.08;0.00;;;11.60;85.80;;;;;;6164435;23;20004;-91
2021/01/13 13:10:43;;;;;;;0.00;0.00;;;11.60;85.90;;;;;;6218622;22;20003;-90
2021/01/13 13:13:12;;;;;;;0.00;0.00;;;11.60;86.00;;;;;;6225571;22;20000;-92
2021/01/13 13:15:44;;;;;;;6.50;0.10;;;11.50;86.10;;;;;;6199826;22;20019;-91
2021/01/13 13:18:18;;;;;;;0.00;0.00;;;11.50;86.20;;;;;;6225556;22;20000;-90
2021/01/13 13:20:44;;;;;;;0.00;0.00;;;11.40;86.20;;;;;;6200186;22;20016;-93
2021/01/13 13:23:21;;;;;;;0.00;0.00;;;11.50;86.30;;;;;;6225332;22;20000;-94
2021/01/13 13:25:47;;;;;;;0.00;0.00;;;11.40;86.30;;;;;;6216112;23;20017;-90
2021/01/13 13:28:14;;;;;;;0.10;0.00;;;11.40;86.40;;;;;;6164858;23;20004;-90
2021/01/13 13:30:50;;;;;;;0.00;0.00;;;11.40;86.30;;;;;;6164001;23;20012;-89
2021/01/13 13:34:18;;;;;;;0.00;0.00;;;11.40;86.40;;;;;;6169863;23;20012;-91
2021/01/13 13:36:43;;;;;;;0.00;0.00;;;11.50;86.20;;;;;;6213328;23;20008;-90
2021/01/13 13:39:09;;;;;;;4.07;0.25;;;11.50;86.00;;;;;;6164517;23;20009;-91
2021/01/13 13:41:36;;;;;;;0.00;0.00;;;11.60;85.90;;;;;;6165451;23;20012;-91
2021/01/13 13:44:02;;;;;;;0.00;0.00;;;11.60;85.80;;;;;;6190980;23;20004;-89
2021/01/13 13:46:29;;;;;;;0.75;0.00;;;11.60;85.70;;;;;;6162873;23;20387;-92
2021/01/13 13:49:05;;;;;;;;;;;;;;;;;;;;;
2021/01/13 13:51:32;;;;;;;0.28;0.00;;;11.60;85.60;;;;;;6162141;23;20012;-89
2021/01/13 13:53:59;;;;;;;0.00;0.00;;;11.70;85.50;;;;;;6187709;23;20005;-90
2021/01/13 13:56:25;;;;;;;0.00;0.00;;;11.70;85.40;;;;;;6188623;23;20005;-91
2021/01/13 13:59:00;;;;;;;0.00;0.00;;;11.80;85.30;;;;;;6206063;23;20001;-91
2021/01/13 14:01:31;;;;;;;0.00;0.00;;;11.80;85.20;;;;;;6191226;23;20323;-90
2021/01/13 14:04:09;;;;;;;0.00;0.00;;;11.80;84.90;;;;;;6214991;23;20058;-90
2021/01/13 14:06:38;;;;;;;1.77;0.20;;;11.80;84.80;;;;;;6192679;23;20056;-91
2021/01/13 14:09:05;;;;;;;0.00;0.00;;;11.80;84.90;;;;;;6181423;23;20007;-93
2021/01/13 14:11:38;;;;;;;0.00;0.00;;;11.80;84.90;;;;;;6216262;23;20008;-94
2021/01/13 14:14:05;;;;;;;0.00;0.00;;;11.80;85.00;;;;;;6189904;23;20061;-93
2021/01/13 14:16:31;;;;;;;0.00;0.00;;;11.70;85.00;;;;;;6213375;23;20031;-91
2021/01/13 14:18:57;;;;;;;0.00;0.00;;;11.70;85.10;;;;;;6190564;23;20397;-91
2021/01/13 14:21:56;;;;;;;0.00;0.00;;;11.70;85.10;;;;;;6213833;23;20008;-90
2021/01/13 14:24:22;;;;;;;0.00;0.00;;;11.70;85.30;;;;;;6199004;22;20003;-91
2021/01/13 14:26:49;;;;;;;0.00;0.00;;;11.70;85.30;;;;;;6225855;22;20015;-93
2021/01/13 14:29:16;;;;;;;0.05;0.03;;;11.70;85.40;;;;;;6197670;22;20015;-91